Time;durP1;ratioP1;P1;durP2;ratioP2;P2;SDS_P1;SDS_P2;PMS_P1;PMS_P2;Temp;Humidity;BMP_temperature;BMP_pressure;BME280_temperature;BME280_humidity;BME280_pressure;Samples;Min_cycle;Max_cycle;Signal;HPM_P1;HPM_P2
2023/08/12 00:00:13;;;;;;;4.20;3.38;;;;;;;17.51;100.00;96280.84;1023307;28;20034;-72
2023/08/12 00:00:44;;;;;;;3.58;3.28;;;;;;;17.52;100.00;96293.00;1030270;28;20029;-73
2023/08/12 00:01:14;;;;;;;5.90;3.40;;;;;;;17.51;100.00;96291.44;1027783;28;20023;-75
2023/08/12 00:01:45;;;;;;;5.97;3.67;;;;;;;17.50;100.00;96295.16;1031213;28;20033;-74
2023/08/12 00:02:15;;;;;;;4.30;3.25;;;;;;;17.47;100.00;96290.47;1031211;28;20030;-72
2023/08/12 00:02:46;;;;;;;5.68;3.40;;;;;;;17.46;100.00;96290.75;1031098;28;20030;-74
2023/08/12 00:03:16;;;;;;;4.72;3.72;;;;;;;17.39;100.00;96281.28;1031144;28;20025;-73
2023/08/12 00:03:48;;;;;;;5.88;3.67;;;;;;;17.44;100.00;96293.69;1031193;28;20539;-71
2023/08/12 00:04:18;;;;;;;10.00;3.33;;;;;;;17.42;100.00;96301.16;1031192;28;20049;-73
2023/08/12 00:04:49;;;;;;;5.68;3.63;;;;;;;17.39;100.00;96288.47;1032457;28;20582;-73
2023/08/12 00:05:19;;;;;;;6.13;3.42;;;;;;;17.34;100.00;96285.91;1027045;28;20039;-71
2023/08/12 00:05:50;;;;;;;14.27;3.97;;;;;;;17.30;100.00;96290.22;1030061;28;20460;-72
2023/08/12 00:06:20;;;;;;;7.95;3.70;;;;;;;17.31;100.00;96291.81;1027079;28;20027;-74
2023/08/12 00:06:51;;;;;;;7.97;3.80;;;;;;;17.28;100.00;96298.47;1027168;28;20109;-72
2023/08/12 00:07:21;;;;;;;6.68;3.35;;;;;;;17.26;100.00;96295.31;1030974;28;20038;-74
2023/08/12 00:07:52;;;;;;;4.13;3.65;;;;;;;17.23;100.00;96295.09;1027322;28;20030;-72
2023/08/12 00:08:22;;;;;;;6.22;3.50;;;;;;;17.21;100.00;96292.75;1031161;28;20053;-74
2023/08/12 00:08:52;;;;;;;6.18;3.30;;;;;;;17.22;100.00;96301.50;1035119;28;20033;-74
2023/08/12 00:09:23;;;;;;;5.80;3.70;;;;;;;17.19;100.00;96294.91;1034938;28;20454;-72
2023/08/12 00:09:55;;;;;;;4.25;3.60;;;;;;;17.17;100.00;96297.06;1039245;28;20032;-72
2023/08/12 00:10:26;;;;;;;3.88;3.40;;;;;;;17.16;100.00;96296.25;1038805;28;20492;-73
2023/08/12 00:10:56;;;;;;;5.53;3.75;;;;;;;17.16;100.00;96293.63;1034912;28;20022;-72
2023/08/12 00:11:27;;;;;;;3.78;3.22;;;;;;;17.17;100.00;96297.06;1026937;28;20027;-72
2023/08/12 00:11:57;;;;;;;4.75;3.90;;;;;;;17.16;100.00;96298.91;1027026;28;20595;-72
2023/08/12 00:12:28;;;;;;;5.00;3.75;;;;;;;17.17;100.00;96297.06;1023087;29;20057;-73
2023/08/12 00:12:59;;;;;;;4.03;3.63;;;;;;;17.10;100.00;96289.50;1021344;28;20038;-71
2023/08/12 00:13:29;;;;;;;4.13;3.50;;;;;;;17.16;100.00;96301.56;1027082;28;20112;-72
2023/08/12 00:14:00;;;;;;;4.05;3.47;;;;;;;17.16;100.00;96304.22;1027158;28;20042;-72
2023/08/12 00:14:30;;;;;;;4.68;3.50;;;;;;;17.15;100.00;96297.34;1031399;28;20026;-73
2023/08/12 00:15:01;;;;;;;4.55;3.85;;;;;;;17.11;100.00;96293.72;1031070;28;20034;-73
2023/08/12 00:15:32;;;;;;;5.10;3.40;;;;;;;17.13;100.00;96296.84;1031114;28;20073;-72
2023/08/12 00:16:02;;;;;;;4.13;3.35;;;;;;;17.14;100.00;96293.13;1031164;28;20034;-74
2023/08/12 00:16:33;;;;;;;6.18;3.28;;;;;;;17.15;100.00;96293.91;1023128;29;20032;-72
2023/08/12 00:17:03;;;;;;;4.18;3.55;;;;;;;17.15;100.00;96300.00;1027034;28;20026;-74
2023/08/12 00:17:35;;;;;;;5.63;3.80;;;;;;;17.16;100.00;96290.97;1023040;29;20158;-72
2023/08/12 00:18:06;;;;;;;5.20;3.47;;;;;;;17.16;100.00;96290.19;1023710;28;20135;-73
2023/08/12 00:18:37;;;;;;;6.43;3.90;;;;;;;17.16;100.00;96290.97;1031153;28;20038;-71
2023/08/12 00:19:08;;;;;;;5.47;3.40;;;;;;;17.11;100.00;96288.41;1031903;28;20057;-73
2023/08/12 00:19:38;;;;;;;3.38;3.03;;;;;;;17.16;100.00;96296.25;1034886;28;20037;-74
2023/08/12 00:20:10;;;;;;;4.88;3.67;;;;;;;17.16;100.00;96290.19;1031262;28;20041;-74
2023/08/12 00:20:42;;;;;;;6.60;3.58;;;;;;;17.09;100.00;96285.25;1030399;28;20041;-72
2023/08/12 00:21:12;;;;;;;5.40;3.50;;;;;;;16.98;100.00;96267.94;1019564;29;20472;-73
2023/08/12 00:21:43;;;;;;;6.20;3.90;;;;;;;17.14;100.00;96293.13;1019306;29;20100;-72
2023/08/12 00:22:13;;;;;;;6.00;3.15;;;;;;;17.13;100.00;96299.50;1023154;29;20629;-72
2023/08/12 00:22:44;;;;;;;3.60;3.30;;;;;;;17.14;100.00;96295.78;1019543;28;20644;-72
2023/08/12 00:23:14;;;;;;;4.63;3.63;;;;;;;17.14;100.00;96287.06;1027133;28;20026;-74
2023/08/12 00:23:45;;;;;;;5.22;3.70;;;;;;;17.09;100.00;96279.16;1031159;28;20484;-72
2023/08/12 00:24:16;;;;;;;3.72;3.30;;;;;;;17.17;100.00;96291.78;1027136;28;20011;-73
2023/08/12 00:24:47;;;;;;;6.25;3.53;;;;;;;17.12;100.00;96283.88;1029127;28;20023;-74
2023/08/12 00:25:17;;;;;;;7.93;3.13;;;;;;;17.16;100.00;96290.19;1022432;28;20747;-73
2023/08/12 00:25:49;;;;;;;5.07;3.70;;;;;;;17.16;100.00;96296.25;1028030;28;20078;-73
2023/08/12 00:26:19;;;;;;;5.32;3.60;;;;;;;17.15;100.00;96297.34;1031083;28;20452;-74
2023/08/12 00:26:49;;;;;;;7.72;3.95;;;;;;;17.14;100.00;96293.13;1034519;28;20029;-72
2023/08/12 00:27:20;;;;;;;5.32;3.63;;;;;;;17.14;100.00;96293.13;1031259;28;20447;-71
2023/08/12 00:27:51;;;;;;;8.75;3.72;;;;;;;17.14;100.00;96293.13;1035012;28;20030;-73
2023/08/12 00:28:22;;;;;;;5.10;3.50;;;;;;;17.13;100.00;96286.22;1028886;28;20084;-72
2023/08/12 00:28:52;;;;;;;5.18;3.40;;;;;;;17.07;100.00;96276.81;1035169;28;20026;-71
2023/08/12 00:29:23;;;;;;;5.85;3.55;;;;;;;17.13;100.00;96283.59;1034912;28;20022;-72
2023/08/12 00:29:53;;;;;;;5.00;3.90;;;;;;;17.12;100.00;96287.31;1034809;28;20036;-74
2023/08/12 00:30:24;;;;;;;4.53;3.45;;;;;;;17.15;100.00;96289.41;1022238;29;20118;-74
2023/08/12 00:30:54;;;;;;;4.13;3.35;;;;;;;17.15;100.00;96289.41;1022985;28;20095;-73
2023/08/12 00:31:25;;;;;;;3.72;3.42;;;;;;;17.16;100.00;96287.53;1027025;28;20042;-72
2023/08/12 00:31:55;;;;;;;5.03;3.22;;;;;;;17.15;100.00;96284.09;1022837;28;20089;-72
2023/08/12 00:32:26;;;;;;;6.50;3.50;;;;;;;17.14;100.00;96277.22;1030935;28;20019;-73
2023/08/12 00:32:56;;;;;;;6.57;3.40;;;;;;;17.15;100.00;96283.31;1023026;29;20035;-73
2023/08/12 00:33:27;;;;;;;5.90;3.58;;;;;;;17.15;100.00;96278.78;1024063;28;20463;-74
2023/08/12 00:33:57;;;;;;;4.43;3.40;;;;;;;17.15;100.00;96278.78;1025843;28;20026;-72
2023/08/12 00:34:28;;;;;;;3.85;3.35;;;;;;;17.16;100.00;96283.00;1026830;28;20579;-74
2023/08/12 00:34:58;;;;;;;6.05;3.45;;;;;;;17.14;100.00;96276.44;1030407;28;20124;-73
2023/08/12 00:35:29;;;;;;;4.85;3.60;;;;;;;17.15;100.00;96284.09;1030727;28;20049;-74
2023/08/12 00:35:59;;;;;;;8.32;4.10;;;;;;;17.13;100.00;96275.63;1026708;28;20038;-73
2023/08/12 00:36:29;;;;;;;4.78;3.30;;;;;;;17.15;100.00;96285.97;1022858;28;20033;-73
2023/08/12 00:37:00;;;;;;;8.00;3.85;;;;;;;17.13;100.00;96280.94;1022755;29;20035;-74
2023/08/12 00:37:30;;;;;;;5.70;4.10;;;;;;;17.13;100.00;96280.94;1022976;28;20031;-72
2023/08/12 00:38:01;;;;;;;13.00;3.50;;;;;;;17.11;100.00;96283.09;1026896;28;20540;-73
2023/08/12 00:38:32;;;;;;;5.22;3.50;;;;;;;17.07;100.00;96279.47;1030831;28;20030;-72
2023/08/12 00:39:03;;;;;;;3.45;3.15;;;;;;;17.08;100.00;96283.69;1030804;28;20397;-75
2023/08/12 00:39:34;;;;;;;9.55;4.30;;;;;;;17.08;100.00;96283.69;1026929;28;20034;-73
2023/08/12 00:40:06;;;;;;;4.70;3.47;;;;;;;17.05;100.00;96283.47;1026059;28;20035;-73
2023/08/12 00:40:36;;;;;;;5.35;4.15;;;;;;;16.97;100.00;96276.97;1022319;29;20043;-74
2023/08/12 00:41:07;;;;;;;4.10;3.70;;;;;;;16.96;100.00;96278.03;1023430;28;20374;-74
2023/08/12 00:41:37;;;;;;;6.30;4.00;;;;;;;17.00;100.00;96283.53;1026959;28;20043;-73
2023/08/12 00:42:08;;;;;;;4.65;3.97;;;;;;;16.96;100.00;96275.38;1026585;28;20168;-73
2023/08/12 00:42:38;;;;;;;8.60;3.80;;;;;;;16.89;100.00;96274.97;1030853;28;20480;-73
2023/08/12 00:43:09;;;;;;;3.70;3.38;;;;;;;16.95;100.00;96274.59;1026870;28;20031;-73
2023/08/12 00:43:39;;;;;;;4.35;3.90;;;;;;;16.96;100.00;96288.63;1025894;28;20035;-74
2023/08/12 00:44:10;;;;;;;5.00;3.47;;;;;;;16.92;100.00;96275.19;1026974;28;20046;-73
2023/08/12 00:44:40;;;;;;;5.18;3.70;;;;;;;16.94;100.00;96283.66;1022860;28;20039;-72
2023/08/12 00:45:12;;;;;;;7.38;3.70;;;;;;;16.86;100.00;96268.38;1030769;28;20511;-74
2023/08/12 00:45:43;;;;;;;5.85;3.42;;;;;;;16.93;100.00;96286.56;1030666;28;20034;-72
2023/08/12 00:46:13;;;;;;;5.03;3.60;;;;;;;16.93;100.00;96281.25;1027430;28;20445;-73
2023/08/12 00:46:44;;;;;;;5.25;3.67;;;;;;;16.90;100.00;96285.31;1026699;28;20034;-73
2023/08/12 00:47:16;;;;;;;7.07;3.92;;;;;;;16.88;100.00;96279.50;1030460;28;20034;-72
2023/08/12 00:47:46;;;;;;;5.07;3.65;;;;;;;16.82;100.00;96271.91;1030964;28;20134;-73
2023/08/12 00:48:17;;;;;;;19.02;5.00;;;;;;;16.89;100.00;96280.28;1026768;28;20049;-74
2023/08/12 00:48:48;;;;;;;7.47;3.92;;;;;;;16.78;100.00;96276.22;1022625;28;20035;-74
2023/08/12 00:49:18;;;;;;;18.90;4.93;;;;;;;16.83;100.00;96276.91;1022238;29;20667;-72
2023/08/12 00:49:49;;;;;;;9.50;3.80;;;;;;;16.79;100.00;96275.91;1026976;28;20023;-73
2023/08/12 00:50:19;;;;;;;16.33;4.30;;;;;;;16.76;100.00;96270.41;1029342;28;20069;-72
2023/08/12 00:50:50;;;;;;;8.43;4.55;;;;;;;16.78;100.00;96273.56;1034562;28;20030;-72
2023/08/12 00:51:20;;;;;;;6.93;4.00;;;;;;;16.78;100.00;96276.22;1030749;28;20019;-73
2023/08/12 00:51:51;;;;;;;6.05;3.42;;;;;;;16.78;100.00;96284.16;1030898;28;20080;-73
2023/08/12 00:52:21;;;;;;;4.30;3.58;;;;;;;16.80;100.00;96276.69;1025863;28;20056;-74
2023/08/12 00:52:52;;;;;;;5.40;4.13;;;;;;;16.73;100.00;96269.91;1018860;29;20083;-74
2023/08/12 00:53:22;;;;;;;10.20;4.07;;;;;;;16.81;100.00;96283.59;1022818;29;20038;-74
2023/08/12 00:53:53;;;;;;;7.60;4.05;;;;;;;16.81;100.00;96283.59;1022938;28;20035;-72
2023/08/12 00:54:24;;;;;;;4.35;3.95;;;;;;;16.78;100.00;96290.25;1022719;29;20115;-73
2023/08/12 00:54:55;;;;;;;7.60;3.90;;;;;;;16.76;100.00;96283.66;1018838;29;20054;-73
2023/08/12 00:55:26;;;;;;;5.32;3.67;;;;;;;16.69;100.00;96271.53;1018669;29;20022;-73
2023/08/12 00:55:56;;;;;;;9.48;4.28;;;;;;;16.76;100.00;96283.66;1018713;29;20047;-74
2023/08/12 00:56:27;;;;;;;16.25;4.68;;;;;;;16.73;100.00;96275.19;1022883;29;20031;-72
2023/08/12 00:56:57;;;;;;;14.85;4.50;;;;;;;16.67;100.00;96273.69;1022667;29;20023;-73
2023/08/12 00:57:28;;;;;;;12.60;4.53;;;;;;;16.72;100.00;96273.59;1022659;29;20015;-73
2023/08/12 00:57:58;;;;;;;6.95;4.13;;;;;;;16.68;100.00;96275.25;1026834;28;20121;-74
2023/08/12 00:58:29;;;;;;;7.22;3.83;;;;;;;16.72;100.00;96278.91;1030931;28;20022;-72
2023/08/12 00:59:00;;;;;;;5.05;3.60;;;;;;;16.70;100.00;96280.28;1026489;28;20631;-73
2023/08/12 00:59:30;;;;;;;10.10;3.92;;;;;;;16.63;100.00;96267.41;1022941;29;20110;-73
2023/08/12 01:00:03;;;;;;;9.85;3.90;;;;;;;16.66;100.00;96266.00;1018769;29;20402;-74
2023/08/12 01:00:34;;;;;;;4.38;3.97;;;;;;;16.71;100.00;96279.19;1026115;28;20541;-73
2023/08/12 01:01:04;;;;;;;4.43;3.88;;;;;;;16.70;100.00;96273.13;1030373;28;20040;-74
2023/08/12 01:01:35;;;;;;;6.07;4.07;;;;;;;16.67;100.00;96279.00;1030810;28;20041;-72
2023/08/12 01:02:06;;;;;;;4.25;3.45;;;;;;;16.68;100.00;96277.13;1030728;28;20107;-72
2023/08/12 01:02:36;;;;;;;6.65;3.92;;;;;;;16.67;100.00;96278.22;1030903;28;20396;-74
2023/08/12 01:03:07;;;;;;;4.90;3.75;;;;;;;16.64;100.00;96279.56;1029889;28;20041;-74
2023/08/12 01:03:37;;;;;;;6.30;4.25;;;;;;;16.64;100.00;96278.78;1026637;28;20130;-75
2023/08/12 01:04:08;;;;;;;6.28;4.07;;;;;;;16.54;100.00;96263.81;1025517;28;20078;-73
2023/08/12 01:04:38;;;;;;;6.25;4.30;;;;;;;16.60;100.00;96273.28;1026570;28;20746;-73
2023/08/12 01:05:09;;;;;;;7.00;3.70;;;;;;;16.56;100.00;96272.25;1026606;28;20078;-72
2023/08/12 01:05:39;;;;;;;9.40;4.40;;;;;;;16.59;100.00;96276.19;1026625;28;20042;-74
2023/08/12 01:06:09;;;;;;;5.32;3.80;;;;;;;16.57;100.00;96278.34;1029855;28;20076;-73
2023/08/12 01:06:40;;;;;;;10.02;4.03;;;;;;;16.56;100.00;96271.47;1026700;28;20110;-73
2023/08/12 01:07:11;;;;;;;5.00;3.88;;;;;;;16.55;100.00;96268.03;1026761;28;20015;-74
2023/08/12 01:07:42;;;;;;;5.82;3.72;;;;;;;16.55;100.00;96269.91;1036644;28;20025;-73
2023/08/12 01:08:13;;;;;;;6.82;3.90;;;;;;;16.58;100.00;96272.75;1030766;28;20512;-73
2023/08/12 01:08:43;;;;;;;4.15;3.72;;;;;;;16.60;100.00;96273.28;1030757;28;20045;-73
2023/08/12 01:09:14;;;;;;;5.53;4.10;;;;;;;16.58;100.00;96269.31;1022837;28;20023;-75
2023/08/12 01:09:45;;;;;;;5.38;3.90;;;;;;;16.64;100.00;96274.25;1026846;28;20149;-74
2023/08/12 01:10:16;;;;;;;6.45;3.53;;;;;;;16.54;100.00;96263.81;1022764;29;20115;-72
2023/08/12 01:10:51;;;;;;;5.90;3.85;;;;;;;16.65;100.00;96270.53;1018167;29;20110;-74
2023/08/12 01:11:30;;;;;;;5.60;3.60;;;;;;;16.65;100.00;96269.75;1021825;29;20090;-74
2023/08/12 01:12:19;;;;;;;4.82;3.95;;;;;;;16.62;100.00;96265.81;1024773;28;20645;-74
2023/08/12 01:12:53;;;;;;;3.80;3.45;;;;;;;16.60;100.00;96257.38;1033115;28;20044;-73
2023/08/12 01:13:34;;;;;;;4.47;3.85;;;;;;;16.57;100.00;96257.94;1030669;28;20409;-73
2023/08/12 01:14:32;;;;;;;7.78;3.70;;;;;;;16.61;100.00;96266.88;1026764;28;20858;-72
2023/08/12 01:15:12;;;;;;;5.05;3.72;;;;;;;16.60;100.00;96262.66;1026635;28;20505;-72
2023/08/12 01:15:42;;;;;;;3.33;3.03;;;;;;;16.58;100.00;96264.81;1027600;28;20054;-72
2023/08/12 01:16:13;;;;;;;8.25;4.05;;;;;;;16.60;100.00;96260.03;1022492;29;20672;-72
2023/08/12 01:16:46;;;;;;;4.88;3.65;;;;;;;16.55;100.00;96249.50;1026819;28;20029;-74
2023/08/12 01:17:16;;;;;;;4.72;3.75;;;;;;;16.57;100.00;96254.50;1022503;29;20041;-72
2023/08/12 01:17:51;;;;;;;4.53;3.63;;;;;;;16.60;100.00;96257.38;1022512;29;20389;-74
2023/08/12 01:18:22;;;;;;;3.80;3.40;;;;;;;16.57;100.00;96250.00;1018777;29;20370;-72
2023/08/12 01:18:53;;;;;;;6.13;3.83;;;;;;;16.61;100.00;96258.94;1026831;28;20129;-72
2023/08/12 01:19:31;;;;;;;4.68;3.30;;;;;;;16.63;100.00;96261.28;1022631;29;20031;-74
2023/08/12 01:20:08;;;;;;;4.43;3.63;;;;;;;16.55;100.00;96244.19;1022521;28;20487;-74
2023/08/12 01:20:38;;;;;;;5.50;4.13;;;;;;;16.62;100.00;96255.19;1025941;28;20022;-72
2023/08/12 01:21:12;;;;;;;6.03;4.05;;;;;;;16.66;100.00;96255.41;1026670;28;20050;-74
2023/08/12 01:21:43;;;;;;;3.75;3.45;;;;;;;16.67;100.00;96262.31;1022718;29;20023;-73
2023/08/12 01:22:14;;;;;;;6.45;4.00;;;;;;;16.63;100.00;96250.69;1023145;28;20062;-73
2023/08/12 01:22:44;;;;;;;4.57;3.72;;;;;;;16.65;100.00;96249.34;1027961;28;20124;-72
2023/08/12 01:23:15;;;;;;;6.93;4.15;;;;;;;16.64;100.00;96247.75;1027207;28;20082;-71
2023/08/12 01:23:46;;;;;;;4.40;3.65;;;;;;;16.58;100.00;96245.47;1022768;29;20085;-72
2023/08/12 01:24:16;;;;;;;5.45;4.13;;;;;;;16.65;100.00;96254.63;1022566;29;20086;-72
2023/08/12 01:24:46;;;;;;;4.72;3.78;;;;;;;16.66;100.00;96247.47;1021157;28;20600;-72
2023/08/12 01:25:17;;;;;;;4.68;3.72;;;;;;;16.66;100.00;96250.91;1030918;28;20072;-72
2023/08/12 01:25:47;;;;;;;5.03;4.00;;;;;;;16.66;100.00;96250.13;1039122;28;20021;-73
2023/08/12 01:26:18;;;;;;;6.05;3.95;;;;;;;16.65;100.00;96253.84;1038679;28;20063;-74
2023/08/12 01:26:48;;;;;;;5.03;4.22;;;;;;;16.63;100.00;96245.38;1038626;28;20040;-73
2023/08/12 01:27:20;;;;;;;4.65;4.00;;;;;;;16.60;100.00;96240.66;1034819;28;20030;-71
2023/08/12 01:27:50;;;;;;;7.13;3.97;;;;;;;16.59;100.00;96239.88;1026765;28;20037;-74
2023/08/12 01:28:21;;;;;;;4.20;3.80;;;;;;;16.63;100.00;96246.19;1026519;28;20037;-74
2023/08/12 01:28:51;;;;;;;4.72;3.92;;;;;;;16.66;100.00;96245.59;1026867;28;20709;-73
2023/08/12 01:29:22;;;;;;;4.03;3.67;;;;;;;16.65;100.00;96248.53;1026645;28;20026;-73
2023/08/12 01:29:52;;;;;;;4.03;3.60;;;;;;;16.58;100.00;96232.22;1026749;28;20081;-73
2023/08/12 01:30:23;;;;;;;4.18;3.75;;;;;;;16.58;100.00;96242.84;1026126;28;20081;-73
2023/08/12 01:30:58;;;;;;;7.25;4.15;;;;;;;16.64;100.00;96245.13;1018583;29;20828;-74
2023/08/12 01:31:34;;;;;;;6.15;3.90;;;;;;;16.61;100.00;96239.59;1018801;29;20640;-72
2023/08/12 01:32:12;;;;;;;5.82;4.05;;;;;;;16.58;100.00;96232.22;1026782;28;20031;-74
2023/08/12 01:32:56;;;;;;;4.47;3.90;;;;;;;16.63;100.00;96237.44;1028909;28;20034;-74
2023/08/12 01:33:42;;;;;;;5.28;4.20;;;;;;;16.61;100.00;96234.31;1028856;28;20030;-73
2023/08/12 01:34:18;;;;;;;5.97;4.13;;;;;;;16.60;100.00;96235.38;1033498;28;20119;-74
2023/08/12 01:35:03;;;;;;;6.40;3.40;;;;;;;16.64;100.00;96241.69;1026699;28;20635;-73
2023/08/12 01:35:36;;;;;;;4.63;3.97;;;;;;;16.62;100.00;96233.22;1034812;28;20044;-75
2023/08/12 01:36:10;;;;;;;6.72;3.75;;;;;;;16.57;100.00;96228.03;1026597;28;20109;-73
2023/08/12 01:36:41;;;;;;;3.65;3.35;;;;;;;16.61;100.00;96237.75;1022444;28;20039;-73
2023/08/12 01:37:14;;;;;;;4.30;3.90;;;;;;;16.54;100.00;96221.44;1026760;28;20026;-73
2023/08/12 01:37:44;;;;;;;4.03;3.60;;;;;;;16.62;100.00;96238.53;1030616;28;20050;-74
2023/08/12 01:38:14;;;;;;;6.70;4.00;;;;;;;16.60;100.00;96230.88;1022688;29;20031;-73
2023/08/12 01:38:46;;;;;;;5.45;3.72;;;;;;;16.60;100.00;96236.19;1022230;29;20019;-72
2023/08/12 01:39:18;;;;;;;4.78;3.85;;;;;;;16.60;100.00;96236.19;1022597;29;20030;-73
2023/08/12 01:39:48;;;;;;;4.90;4.00;;;;;;;16.59;100.00;96223.19;1022725;29;20027;-72
2023/08/12 01:40:19;;;;;;;4.25;3.78;;;;;;;16.58;100.00;96224.28;1023149;28;20425;-71
2023/08/12 01:40:50;;;;;;;4.38;3.97;;;;;;;16.57;100.00;96228.81;1021687;28;20049;-72
2023/08/12 01:41:20;;;;;;;5.03;3.78;;;;;;;16.57;100.00;96226.16;1026452;28;20023;-73
2023/08/12 01:41:51;;;;;;;5.35;3.63;;;;;;;16.56;100.00;96229.84;1018800;29;20019;-72
2023/08/12 01:42:21;;;;;;;4.60;4.13;;;;;;;16.54;100.00;96226.72;1026469;28;20027;-74
2023/08/12 01:42:52;;;;;;;5.05;3.88;;;;;;;16.60;100.00;96228.22;1030693;28;20018;-73
2023/08/12 01:43:22;;;;;;;4.75;3.78;;;;;;;16.62;100.00;96234.00;1026532;28;20034;-73
2023/08/12 01:43:53;;;;;;;5.45;3.95;;;;;;;16.62;100.00;96234.00;1022683;29;20019;-72
2023/08/12 01:44:23;;;;;;;13.80;3.80;;;;;;;16.62;100.00;96230.56;1018578;29;20391;-72
2023/08/12 01:44:54;;;;;;;5.88;3.92;;;;;;;16.62;100.00;96238.53;1026474;28;20129;-72
2023/08/12 01:45:24;;;;;;;4.10;3.53;;;;;;;16.54;100.00;96220.66;1030450;28;20035;-73
2023/08/12 01:45:55;;;;;;;7.55;4.38;;;;;;;16.64;100.00;96236.38;1030677;28;20818;-73
2023/08/12 01:46:25;;;;;;;4.18;3.78;;;;;;;16.65;100.00;96233.44;1026733;28;20495;-72
2023/08/12 01:46:55;;;;;;;5.28;4.40;;;;;;;16.61;100.00;96232.44;1026363;28;20018;-72
2023/08/12 01:47:26;;;;;;;5.32;3.75;;;;;;;16.66;100.00;96235.00;1026544;28;20058;-74
2023/08/12 01:47:57;;;;;;;5.30;4.03;;;;;;;16.67;100.00;96241.88;1034092;28;20077;-73
2023/08/12 01:48:27;;;;;;;5.18;4.20;;;;;;;16.69;100.00;96233.63;1034902;28;20471;-73
2023/08/12 01:48:58;;;;;;;6.32;4.20;;;;;;;16.65;100.00;96237.94;1038519;28;20025;-74
2023/08/12 01:49:28;;;;;;;7.20;3.88;;;;;;;16.67;100.00;96241.88;1030680;28;20057;-74
2023/08/12 01:49:59;;;;;;;4.82;4.20;;;;;;;16.62;100.00;96228.72;1030576;28;20037;-72
2023/08/12 01:50:29;;;;;;;4.82;4.00;;;;;;;16.68;100.00;96238.16;1030016;28;20034;-72
2023/08/12 01:51:00;;;;;;;7.30;3.90;;;;;;;16.61;100.00;96229.78;1030536;28;20087;-73
2023/08/12 01:51:30;;;;;;;4.28;3.70;;;;;;;16.70;100.00;96241.31;1030689;28;20075;-74
2023/08/12 01:52:01;;;;;;;4.32;3.92;;;;;;;16.70;100.00;96233.38;1030362;28;20756;-74
2023/08/12 01:52:31;;;;;;;6.25;3.95;;;;;;;16.73;100.00;96239.94;1022710;29;20031;-74
2023/08/12 01:53:02;;;;;;;4.75;3.92;;;;;;;16.68;100.00;96232.84;1022497;29;20031;-73
2023/08/12 01:53:32;;;;;;;5.38;4.22;;;;;;;16.62;100.00;96223.41;1022579;29;20159;-73
2023/08/12 01:54:03;;;;;;;6.60;4.20;;;;;;;16.69;100.00;96236.28;1022550;28;20035;-72
2023/08/12 01:54:34;;;;;;;7.13;4.30;;;;;;;16.70;100.00;96241.31;1026666;28;20035;-73
2023/08/12 01:55:05;;;;;;;4.40;3.60;;;;;;;16.68;100.00;96232.84;1026397;28;20065;-74
2023/08/12 01:55:35;;;;;;;5.15;4.25;;;;;;;16.67;100.00;96236.59;1025495;28;20508;-72
2023/08/12 01:56:06;;;;;;;5.13;3.83;;;;;;;16.68;100.00;96237.38;1026628;28;20061;-73
2023/08/12 01:56:36;;;;;;;8.05;4.07;;;;;;;16.66;100.00;96231.56;1030838;28;20039;-74
2023/08/12 01:57:08;;;;;;;4.22;3.83;;;;;;;16.58;100.00;96221.63;1034516;28;20056;-72
2023/08/12 01:57:38;;;;;;;5.30;4.05;;;;;;;16.65;100.00;96228.13;1030421;28;20085;-72
2023/08/12 01:58:08;;;;;;;5.20;3.83;;;;;;;16.64;100.00;96231.88;1030679;28;20061;-74
2023/08/12 01:58:39;;;;;;;4.85;4.07;;;;;;;16.58;100.00;96221.63;1030649;28;20045;-74
2023/08/12 01:59:09;;;;;;;3.97;3.58;;;;;;;16.53;100.00;96217.19;1034719;28;20403;-72
2023/08/12 01:59:41;;;;;;;5.40;4.30;;;;;;;16.60;100.00;96228.22;1034536;28;20033;-73
2023/08/12 02:00:11;;;;;;;6.40;4.00;;;;;;;16.59;100.00;96229.28;1034607;28;20519;-75
2023/08/12 02:00:42;;;;;;;4.75;3.95;;;;;;;16.59;100.00;96231.94;1025447;28;20035;-73
2023/08/12 02:01:12;;;;;;;6.50;4.30;;;;;;;16.57;100.00;96226.16;1026299;28;20030;-73
2023/08/12 02:01:43;;;;;;;4.43;3.90;;;;;;;16.56;100.00;96224.56;1026270;28;20027;-74
2023/08/12 02:02:13;;;;;;;5.32;4.25;;;;;;;16.55;100.00;96230.94;1030328;28;20413;-73
2023/08/12 02:02:46;;;;;;;4.38;3.97;;;;;;;16.54;100.00;96226.72;1030650;28;20027;-73
2023/08/12 02:03:17;;;;;;;6.22;4.10;;;;;;;16.55;100.00;96228.28;1026505;28;20022;-73
2023/08/12 02:03:47;;;;;;;7.15;4.78;;;;;;;16.53;100.00;96227.78;1020923;28;20023;-72
2023/08/12 02:04:18;;;;;;;4.28;3.88;;;;;;;16.53;100.00;96225.13;1022517;29;20038;-73
2023/08/12 02:04:48;;;;;;;4.75;3.97;;;;;;;16.50;100.00;96220.44;1023246;28;20031;-74
2023/08/12 02:05:19;;;;;;;5.65;4.40;;;;;;;16.51;100.00;96227.28;1030496;28;20782;-73
2023/08/12 02:05:49;;;;;;;5.57;4.28;;;;;;;16.47;100.00;96227.09;1034549;28;20030;-73
2023/08/12 02:06:20;;;;;;;5.22;4.03;;;;;;;16.46;100.00;96227.34;1038700;28;20040;-74
2023/08/12 02:06:50;;;;;;;4.80;4.22;;;;;;;16.45;100.00;96228.44;1034557;28;20038;-73
2023/08/12 02:07:21;;;;;;;5.40;4.28;;;;;;;16.45;100.00;96229.22;1034445;28;20075;-73
2023/08/12 02:07:51;;;;;;;4.82;4.07;;;;;;;16.44;100.00;96221.56;1030564;28;20100;-74
2023/08/12 02:08:22;;;;;;;4.68;4.20;;;;;;;16.42;100.00;96226.38;1030366;28;20034;-74
2023/08/12 02:08:52;;;;;;;7.03;4.55;;;;;;;16.40;100.00;96221.38;1030532;28;20058;-72
2023/08/12 02:09:23;;;;;;;4.55;4.15;;;;;;;16.37;100.00;96226.47;1026524;28;20526;-72
2023/08/12 02:09:53;;;;;;;4.80;4.32;;;;;;;16.38;100.00;96230.66;1022476;28;20020;-72
2023/08/12 02:10:23;;;;;;;4.57;4.10;;;;;;;16.37;100.00;96226.47;1021899;29;20106;-73
2023/08/12 02:10:54;;;;;;;7.45;4.28;;;;;;;16.33;100.00;96222.78;1026307;28;20030;-75
2023/08/12 02:11:24;;;;;;;6.25;4.47;;;;;;;16.36;100.00;96235.47;1026284;28;20386;-73
2023/08/12 02:11:55;;;;;;;5.63;4.35;;;;;;;16.32;100.00;96223.88;1022430;28;20091;-72
2023/08/12 02:12:25;;;;;;;6.35;4.30;;;;;;;16.30;100.00;96226.00;1026599;28;20039;-73
2023/08/12 02:12:56;;;;;;;8.75;4.25;;;;;;;16.27;100.00;96225.53;1028205;28;20030;-74
2023/08/12 02:13:26;;;;;;;4.68;4.28;;;;;;;16.24;100.00;96228.75;1030708;28;20499;-74
2023/08/12 02:13:57;;;;;;;7.93;4.30;;;;;;;16.19;100.00;96223.50;1034460;28;20082;-73
2023/08/12 02:14:27;;;;;;;6.32;4.70;;;;;;;16.16;100.00;96216.16;1030571;28;20524;-73
2023/08/12 02:14:58;;;;;;;9.30;4.40;;;;;;;16.11;100.00;96221.50;1026226;28;20170;-73
2023/08/12 02:15:28;;;;;;;6.13;4.70;;;;;;;16.15;100.00;96229.66;1026335;28;20489;-73
2023/08/12 02:15:59;;;;;;;8.60;4.43;;;;;;;16.10;100.00;96229.75;1030261;28;20495;-73
2023/08/12 02:16:29;;;;;;;9.70;4.30;;;;;;;16.04;100.00;96218.44;1026280;28;20030;-73
2023/08/12 02:17:00;;;;;;;9.52;4.50;;;;;;;16.08;100.00;96224.72;1026461;28;20539;-72
2023/08/12 02:17:30;;;;;;;6.10;5.05;;;;;;;16.07;100.00;96228.44;1026410;28;20026;-73
2023/08/12 02:18:01;;;;;;;8.00;4.60;;;;;;;16.05;100.00;96225.28;1024435;28;20038;-74
2023/08/12 02:18:32;;;;;;;5.80;4.80;;;;;;;16.04;100.00;96223.72;1030456;28;20654;-72
2023/08/12 02:19:02;;;;;;;5.20;4.40;;;;;;;16.04;100.00;96229.00;1030462;28;20025;-73
2023/08/12 02:19:33;;;;;;;5.75;4.50;;;;;;;15.97;100.00;96223.28;1030798;28;20644;-73
2023/08/12 02:20:04;;;;;;;6.22;4.88;;;;;;;16.00;100.00;96234.09;1030434;28;20060;-73
2023/08/12 02:20:35;;;;;;;10.93;4.57;;;;;;;15.92;100.00;96218.03;1030073;28;20040;-73
2023/08/12 02:21:05;;;;;;;5.22;4.30;;;;;;;15.97;100.00;96234.66;1030578;28;20049;-74
2023/08/12 02:21:36;;;;;;;4.20;3.80;;;;;;;15.90;100.00;96228.16;1028995;28;20578;-72
2023/08/12 02:22:06;;;;;;;4.70;4.28;;;;;;;15.94;100.00;96239.72;1026936;28;20113;-73
2023/08/12 02:22:36;;;;;;;8.50;4.07;;;;;;;15.86;100.00;96221.81;1022687;28;20544;-74
2023/08/12 02:23:07;;;;;;;8.60;4.47;;;;;;;15.88;100.00;96233.72;1023998;28;20527;-72
2023/08/12 02:23:37;;;;;;;6.50;4.30;;;;;;;15.83;100.00;96227.69;1030867;28;20085;-73
2023/08/12 02:24:08;;;;;;;8.68;4.28;;;;;;;15.84;100.00;96234.56;1035288;28;20033;-73
2023/08/12 02:24:38;;;;;;;4.50;3.95;;;;;;;15.85;100.00;96242.22;1030598;28;20070;-73
2023/08/12 02:25:09;;;;;;;6.05;4.68;;;;;;;15.76;100.00;96226.19;1030520;28;20030;-74